Gordon Reid — CGBR — position and weather

sailwx.info

Track history (hours):
 
Tides and Currents Weather Stations Pressure Air Temp Water Temp Dewpoint Dewpoint Depression Visibility Wind Speed Wind Dir Waves Ship Positions

Gordon Reid

Last reported at 2015-Jul-21 22:10 UTC. Time now 2015-Jul-31 13:26 UTC.
Position N 51°18' W 127°52'.
Warning: this ship's position is 9 days out of date.

Length 49.95 m; beam 11 m; draft 5.4 m.

Type: SAR. MMSI: 316094000.

Date/timePositionNaut miles runAvg speedWind from/ knotsBaromVisibWave heightAir tempDewpointWater temp
2015-Jul-21 22:10N 51°18' W 127°52'710.9
2015-Jul-21 21:34N 51°12' W 127°56'  
2015-Jul-17 20:28N 50°51' W 127°52'0 0.0
2015-Jul-17 19:16N 50°51' W 127°52'0 0.0
2015-Jul-17 18:28N 50°51' W 127°52'0 0.0
2015-Jul-17 17:28N 50°51' W 127°52'0 0.0
2015-Jul-17 15:28N 50°51' W 127°52'0 0.0
2015-Jul-17 13:28N 50°51' W 127°52'0 0.0
2015-Jul-17 12:28N 50°51' W 127°52'0 0.0
2015-Jul-17 11:16N 50°51' W 127°52'0 0.0
2015-Jul-17 10:28N 50°51' W 127°52'0 0.0
2015-Jul-17 09:28N 50°51' W 127°52'0 0.0
2015-Jul-17 08:16N 50°51' W 127°52'0 0.0
2015-Jul-17 07:22N 50°51' W 127°52'0 0.0
2015-Jul-17 05:28N 50°51' W 127°52'0 0.0
2015-Jul-17 04:28N 50°51' W 127°52'2 2.2
2015-Jul-17 03:33N 50°51' W 127°49'1110.8
2015-Jul-17 02:33N 50°48' W 127°32'5 1.5
2015-Jul-16 23:21N 50°43' W 127°29'0 0.0
2015-Jul-16 12:15N 50°43' W 127°29'0 0.0
2015-Jul-16 11:33N 50°43' W 127°29'0 0.0
2015-Jul-16 10:33N 50°43' W 127°29'0 0.0
2015-Jul-16 09:33N 50°43' W 127°29'0 0.0
2015-Jul-16 08:33N 50°43' W 127°29'0 0.0
2015-Jul-16 07:33N 50°43' W 127°29'0 0.0
2015-Jul-16 06:33N 50°43' W 127°29'0 0.0
2015-Jul-16 05:33N 50°43' W 127°29'0 0.0
2015-Jul-16 04:21N 50°43' W 127°29'0 0.0
2015-Jul-16 03:33N 50°43' W 127°29'0 0.0
2015-Jul-16 02:33N 50°43' W 127°29'0 0.0
2015-Jul-16 01:21N 50°43' W 127°29'0 0.0
2015-Jul-16 00:33N 50°43' W 127°29'0 0.0
2015-Jul-15 23:33N 50°43' W 127°29'0 0.0
2015-Jul-15 22:27N 50°43' W 127°29'0 0.0
2015-Jul-15 21:33N 50°43' W 127°29'0 0.0
2015-Jul-15 20:33N 50°43' W 127°29'1 1.1
2015-Jul-15 19:32N 50°43' W 127°28'0 0.0
2015-Jul-15 18:26N 50°43' W 127°28'0 0.0
2015-Jul-15 17:32N 50°43' W 127°28'0 0.0
2015-Jul-15 16:32N 50°43' W 127°28'0 0.0
2015-Jul-15 15:33N 50°43' W 127°28'2 2.2
2015-Jul-15 14:33N 50°45' W 127°28'4 4.1
2015-Jul-15 13:33N 50°47' W 127°34'0 0.1
2015-Jul-15 12:33N 50°47' W 127°34'0 0.2
2015-Jul-15 11:33N 50°48' W 127°34'0 0.2
2015-Jul-15 10:33N 50°48' W 127°34'0 0.4
2015-Jul-15 09:33N 50°48' W 127°34'6 6.4
2015-Jul-15 08:33N 50°54' W 127°38'10 9.7
2015-Jul-15 07:33N 51°02' W 127°47'10 9.6
2015-Jul-15 06:30N 51°12' W 127°51'18 9.1
2015-Jul-15 04:29N 51°30' W 127°51'  
Track history (hours):
 
Tides and Currents Weather Stations Pressure Air Temp Water Temp Dewpoint Dewpoint Depression Visibility Wind Speed Wind Dir Waves Ship Positions

Gordon Reid

Last reported at 2015-Jul-21 22:10 UTC. Time now 2015-Jul-31 13:26 UTC.
Position N 51°18' W 127°52'.
Warning: this ship's position is 9 days out of date.

Length 49.95 m; beam 11 m; draft 5.4 m.

Type: SAR. MMSI: 316094000.

Date/timePositionNaut miles runAvg speedWind from/ knotsBaromVisibWave heightAir tempDewpointWater temp
2015-Jul-21 22:10N 51°18' W 127°52'710.9
2015-Jul-21 21:34N 51°12' W 127°56'  
2015-Jul-17 20:28N 50°51' W 127°52'0 0.0
2015-Jul-17 19:16N 50°51' W 127°52'0 0.0
2015-Jul-17 18:28N 50°51' W 127°52'0 0.0
2015-Jul-17 17:28N 50°51' W 127°52'0 0.0
2015-Jul-17 15:28N 50°51' W 127°52'0 0.0
2015-Jul-17 13:28N 50°51' W 127°52'0 0.0
2015-Jul-17 12:28N 50°51' W 127°52'0 0.0
2015-Jul-17 11:16N 50°51' W 127°52'0 0.0
2015-Jul-17 10:28N 50°51' W 127°52'0 0.0
2015-Jul-17 09:28N 50°51' W 127°52'0 0.0
2015-Jul-17 08:16N 50°51' W 127°52'0 0.0
2015-Jul-17 07:22N 50°51' W 127°52'0 0.0
2015-Jul-17 05:28N 50°51' W 127°52'0 0.0
2015-Jul-17 04:28N 50°51' W 127°52'2 2.2
2015-Jul-17 03:33N 50°51' W 127°49'1110.8
2015-Jul-17 02:33N 50°48' W 127°32'5 1.5
2015-Jul-16 23:21N 50°43' W 127°29'0 0.0
2015-Jul-16 12:15N 50°43' W 127°29'0 0.0
2015-Jul-16 11:33N 50°43' W 127°29'0 0.0
2015-Jul-16 10:33N 50°43' W 127°29'0 0.0
2015-Jul-16 09:33N 50°43' W 127°29'0 0.0
2015-Jul-16 08:33N 50°43' W 127°29'0 0.0
2015-Jul-16 07:33N 50°43' W 127°29'0 0.0
2015-Jul-16 06:33N 50°43' W 127°29'0 0.0
2015-Jul-16 05:33N 50°43' W 127°29'0 0.0
2015-Jul-16 04:21N 50°43' W 127°29'0 0.0
2015-Jul-16 03:33N 50°43' W 127°29'0 0.0
2015-Jul-16 02:33N 50°43' W 127°29'0 0.0
2015-Jul-16 01:21N 50°43' W 127°29'0 0.0
2015-Jul-16 00:33N 50°43' W 127°29'0 0.0
2015-Jul-15 23:33N 50°43' W 127°29'0 0.0
2015-Jul-15 22:27N 50°43' W 127°29'0 0.0
2015-Jul-15 21:33N 50°43' W 127°29'0 0.0
2015-Jul-15 20:33N 50°43' W 127°29'1 1.1
2015-Jul-15 19:32N 50°43' W 127°28'0 0.0
2015-Jul-15 18:26N 50°43' W 127°28'0 0.0
2015-Jul-15 17:32N 50°43' W 127°28'0 0.0
2015-Jul-15 16:32N 50°43' W 127°28'0 0.0
2015-Jul-15 15:33N 50°43' W 127°28'2 2.2
2015-Jul-15 14:33N 50°45' W 127°28'4 4.1
2015-Jul-15 13:33N 50°47' W 127°34'0 0.1
2015-Jul-15 12:33N 50°47' W 127°34'0 0.2
2015-Jul-15 11:33N 50°48' W 127°34'0 0.2
2015-Jul-15 10:33N 50°48' W 127°34'0 0.4
2015-Jul-15 09:33N 50°48' W 127°34'6 6.4
2015-Jul-15 08:33N 50°54' W 127°38'10 9.7
2015-Jul-15 07:33N 51°02' W 127°47'10 9.6
2015-Jul-15 06:30N 51°12' W 127°51'18 9.1
2015-Jul-15 04:29N 51°30' W 127°51'  

Dump ship's entire track history